createdAt,value
2017-10-27T00:01:17.063Z,101157.34
2017-10-27T00:03:44.556Z,101166.47
2017-10-27T00:06:12.117Z,101163.27
2017-10-27T00:08:39.656Z,101165.80
2017-10-27T00:11:07.233Z,101153.30
2017-10-27T00:13:34.740Z,101153.84
2017-10-27T00:16:02.272Z,101157.73
2017-10-27T00:18:29.763Z,101156.91
2017-10-27T00:20:57.403Z,101153.48
2017-10-27T00:23:25.141Z,101148.34
2017-10-27T00:25:52.637Z,101138.41
2017-10-27T00:28:20.137Z,101139.85
2017-10-27T00:30:47.807Z,101131.02
2017-10-27T00:33:15.304Z,101137.72
2017-10-27T00:35:42.824Z,101130.01
2017-10-27T00:38:10.355Z,101139.58
2017-10-27T00:40:37.861Z,101133.94
2017-10-27T00:43:05.366Z,101136.52
2017-10-27T00:45:32.882Z,101134.49
2017-10-27T00:48:00.380Z,101129.19
2017-10-27T00:50:27.917Z,101124.02
2017-10-27T00:52:55.452Z,101122.50
2017-10-27T00:55:22.940Z,101122.25
2017-10-27T00:57:50.428Z,101114.77
2017-10-27T01:00:17.979Z,101109.67
2017-10-27T01:02:45.480Z,101109.75
2017-10-27T01:05:12.965Z,101104.87
2017-10-27T01:07:40.501Z,101108.69
2017-10-27T01:10:07.992Z,101104.16
2017-10-27T01:12:35.476Z,101097.30
2017-10-27T01:15:03.059Z,101093.27
2017-10-27T01:17:30.620Z,101093.95
2017-10-27T01:19:58.169Z,101090.05
2017-10-27T01:22:25.705Z,101092.01
2017-10-27T01:24:53.196Z,101093.90
2017-10-27T01:27:20.699Z,101088.88
2017-10-27T01:29:48.327Z,101086.58
2017-10-27T01:32:15.864Z,101079.38
2017-10-27T01:34:43.353Z,101073.94
2017-10-27T01:37:10.908Z,101069.38
2017-10-27T01:39:38.392Z,101071.61
2017-10-27T01:42:05.874Z,101063.95
2017-10-27T01:44:33.455Z,101058.23
2017-10-27T01:47:01.019Z,101057.16
2017-10-27T01:49:28.514Z,101049.50
2017-10-27T01:51:56.044Z,101045.48
2017-10-27T01:54:23.532Z,101045.09
2017-10-27T01:56:51.016Z,101039.57
2017-10-27T01:59:18.526Z,101044.54
2017-10-27T02:01:46.044Z,101043.13
2017-10-27T02:04:13.531Z,101035.92
2017-10-27T02:06:41.019Z,101033.33
2017-10-27T02:09:08.555Z,101038.23
2017-10-27T02:11:36.041Z,101034.13
2017-10-27T02:14:03.527Z,101026.61
2017-10-27T02:16:31.045Z,101022.34
2017-10-27T02:18:58.532Z,101026.00
2017-10-27T02:21:26.137Z,101018.17
2017-10-27T02:23:53.631Z,101023.27
2017-10-27T02:26:21.163Z,101020.97
2017-10-27T02:28:48.676Z,101013.76
2017-10-27T02:31:16.164Z,101007.66
2017-10-27T02:33:43.652Z,101001.19
2017-10-27T02:36:11.175Z,101005.30
2017-10-27T02:38:38.662Z,101001.97
2017-10-27T02:41:06.160Z,101005.08
2017-10-27T02:43:33.673Z,101000.73
2017-10-27T02:46:01.212Z,101002.83
2017-10-27T02:48:28.729Z,101003.40
2017-10-27T02:50:56.209Z,101001.95
2017-10-27T02:53:23.697Z,100995.88
2017-10-27T02:55:51.227Z,100988.95
2017-10-27T02:58:18.712Z,100981.05
2017-10-27T03:00:46.197Z,100977.33
2017-10-27T03:03:13.917Z,100976.11
2017-10-27T03:05:41.414Z,100972.25
2017-10-27T03:08:08.895Z,100969.67
2017-10-27T03:10:36.404Z,100965.73
2017-10-27T03:13:03.932Z,100960.23
2017-10-27T03:15:31.434Z,100962.00
2017-10-27T03:17:58.930Z,100955.91
2017-10-27T03:20:26.450Z,100948.38
2017-10-27T03:22:53.968Z,100948.91
2017-10-27T03:25:21.453Z,100947.33
2017-10-27T03:27:48.967Z,100945.25
2017-10-27T03:30:16.512Z,100942.06
2017-10-27T03:32:44.005Z,100941.71
2017-10-27T03:35:11.575Z,100936.16
2017-10-27T03:37:39.160Z,100938.93
2017-10-27T03:40:06.678Z,100940.77
2017-10-27T03:42:34.163Z,100936.76
2017-10-27T03:45:01.723Z,100940.13
2017-10-27T03:47:29.278Z,100934.92
2017-10-27T03:49:56.773Z,100926.93
2017-10-27T03:52:24.277Z,100932.55
2017-10-27T03:54:51.826Z,100929.45
2017-10-27T03:57:19.319Z,100931.59
2017-10-27T03:59:46.805Z,100932.01
2017-10-27T04:02:14.344Z,100928.63
2017-10-27T04:04:41.888Z,100927.55
2017-10-27T04:07:09.379Z,100930.60
2017-10-27T04:09:37.000Z,100930.53
2017-10-27T04:12:04.491Z,100933.52
2017-10-27T04:14:31.979Z,100933.09
2017-10-27T04:16:59.489Z,100935.25
2017-10-27T04:19:27.031Z,100929.83
2017-10-27T04:21:54.540Z,100924.02
2017-10-27T04:24:22.027Z,100930.25
2017-10-27T04:26:49.570Z,100930.85
2017-10-27T04:29:17.056Z,100932.28
2017-10-27T04:31:44.541Z,100927.06
2017-10-27T04:34:12.053Z,100921.09
2017-10-27T04:36:39.582Z,100914.38
2017-10-27T04:39:07.091Z,100920.30
2017-10-27T04:41:34.584Z,100912.95
2017-10-27T04:44:02.129Z,100914.52
2017-10-27T04:46:29.607Z,100918.33
2017-10-27T04:48:57.101Z,100929.03
2017-10-27T04:51:24.617Z,100925.08
2017-10-27T04:53:52.144Z,100933.64
2017-10-27T04:56:19.670Z,100934.66
2017-10-27T04:58:47.157Z,100934.74
2017-10-27T05:01:14.645Z,100921.02
2017-10-27T05:03:42.184Z,100919.27
2017-10-27T05:06:09.674Z,100924.42
2017-10-27T05:08:37.160Z,100916.14
2017-10-27T05:11:04.679Z,100910.63
2017-10-27T05:13:32.175Z,100913.37
2017-10-27T05:15:59.657Z,100909.52
2017-10-27T05:18:32.807Z,100906.57
2017-10-27T05:21:05.943Z,100904.13
2017-10-27T05:23:39.351Z,100907.18
2017-10-27T05:26:06.844Z,100905.95
2017-10-27T05:28:34.322Z,100906.11
2017-10-27T05:31:01.864Z,100911.37
2017-10-27T05:33:29.355Z,100905.94
2017-10-27T05:35:56.843Z,100909.06
2017-10-27T05:38:24.381Z,100909.00
2017-10-27T05:40:51.944Z,100906.50
2017-10-27T05:43:19.484Z,100917.33
2017-10-27T05:45:47.071Z,100909.67
2017-10-27T05:48:14.561Z,100908.39
2017-10-27T05:50:42.112Z,100915.46
2017-10-27T05:53:09.600Z,100914.84
2017-10-27T05:55:37.102Z,100912.75
2017-10-27T05:58:04.627Z,100916.53
2017-10-27T06:00:32.112Z,100924.14
2017-10-27T06:02:59.700Z,100923.45
2017-10-27T06:05:27.342Z,100918.80
2017-10-27T06:07:54.831Z,100919.46
2017-10-27T06:10:22.327Z,100923.12
2017-10-27T06:12:50.025Z,100909.62
2017-10-27T06:15:17.517Z,100906.45
2017-10-27T06:17:45.017Z,100911.95
2017-10-27T06:20:12.900Z,100912.67
2017-10-27T06:22:40.419Z,100913.43
2017-10-27T06:25:07.904Z,100919.20
2017-10-27T06:27:35.394Z,100920.63
2017-10-27T06:30:02.923Z,100931.47
2017-10-27T06:32:30.492Z,100930.11
2017-10-27T06:34:58.057Z,100931.20
2017-10-27T06:37:25.580Z,100927.65
2017-10-27T06:39:53.077Z,100930.59
2017-10-27T06:42:20.568Z,100934.11
2017-10-27T06:44:48.095Z,100943.09
2017-10-27T06:47:15.592Z,100943.09
2017-10-27T06:49:43.076Z,100950.39
2017-10-27T06:52:10.659Z,100946.78
2017-10-27T06:54:38.227Z,100948.67
2017-10-27T06:57:05.719Z,100940.05
2017-10-27T06:59:33.261Z,100936.41
2017-10-27T07:02:00.747Z,100940.80
2017-10-27T07:04:28.235Z,100940.98
2017-10-27T07:06:55.758Z,100937.26
2017-10-27T07:09:23.251Z,100934.88
2017-10-27T07:11:50.747Z,100932.92
2017-10-27T07:14:18.282Z,100937.34
2017-10-27T07:16:45.783Z,100942.68
2017-10-27T07:19:13.271Z,100925.84
2017-10-27T07:21:40.780Z,100937.16
2017-10-27T07:24:08.273Z,100938.20
2017-10-27T07:26:35.816Z,100934.59
2017-10-27T07:29:03.308Z,100943.43
2017-10-27T07:31:30.810Z,100927.13
2017-10-27T07:33:58.452Z,100942.52
2017-10-27T07:36:25.939Z,100942.80
2017-10-27T07:38:53.428Z,100948.63
2017-10-27T07:41:20.956Z,100938.00
2017-10-27T07:43:48.461Z,100943.14
2017-10-27T07:46:15.947Z,100944.37
2017-10-27T07:48:43.476Z,100943.56
2017-10-27T07:51:10.975Z,100935.83
2017-10-27T07:53:38.458Z,100940.15
2017-10-27T07:56:05.982Z,100941.16
2017-10-27T07:58:33.464Z,100941.44
2017-10-27T08:01:00.949Z,100948.98
2017-10-27T08:03:28.493Z,100950.32
2017-10-27T08:05:56.006Z,100951.47
2017-10-27T08:08:23.498Z,100954.21
2017-10-27T08:10:51.042Z,100952.52
2017-10-27T08:13:18.527Z,100954.21
2017-10-27T08:15:46.028Z,100954.47
2017-10-27T08:18:13.596Z,100965.72
2017-10-27T08:20:41.088Z,100971.91
2017-10-27T08:23:08.635Z,100969.80
2017-10-27T08:25:36.120Z,100965.38
2017-10-27T08:28:03.606Z,100957.23
2017-10-27T08:30:31.298Z,100958.98
2017-10-27T08:32:58.788Z,100958.23
2017-10-27T08:35:26.292Z,100966.39
2017-10-27T08:37:53.872Z,100964.05
2017-10-27T08:40:21.419Z,100960.59
2017-10-27T08:42:48.917Z,100968.66
2017-10-27T08:45:16.431Z,100964.05
2017-10-27T08:47:44.000Z,100966.18
2017-10-27T08:50:11.493Z,100956.66
2017-10-27T08:52:39.039Z,100963.92
2017-10-27T08:55:06.991Z,100960.58
2017-10-27T08:57:34.548Z,100967.34
2017-10-27T09:00:02.028Z,100955.61
2017-10-27T09:02:29.671Z,100961.31
2017-10-27T09:04:57.155Z,100961.88
2017-10-27T09:07:24.640Z,100962.95
2017-10-27T09:09:52.171Z,100960.05
2017-10-27T09:12:19.658Z,100958.67
2017-10-27T09:14:47.144Z,100951.79
2017-10-27T09:17:14.713Z,100969.23
2017-10-27T09:19:42.271Z,100958.21
2017-10-27T09:22:09.761Z,100978.26
2017-10-27T09:24:37.495Z,100972.37
2017-10-27T09:27:05.001Z,100977.83
2017-10-27T09:29:33.467Z,100978.55
2017-10-27T09:32:01.109Z,100989.36
2017-10-27T09:34:28.609Z,100984.73
2017-10-27T09:36:56.101Z,100989.34
2017-10-27T09:39:23.634Z,100982.73
2017-10-27T09:41:51.121Z,100957.12
2017-10-27T09:44:18.608Z,100999.25
2017-10-27T09:46:46.141Z,100995.89
2017-10-27T09:49:13.632Z,100993.94
2017-10-27T09:51:41.124Z,100994.34
2017-10-27T09:54:08.636Z,100990.91
2017-10-27T09:56:36.182Z,100992.39
2017-10-27T09:59:03.731Z,100999.06
2017-10-27T10:01:31.221Z,100986.77
2017-10-27T10:03:58.751Z,100999.26
2017-10-27T10:06:26.249Z,101004.75
2017-10-27T10:08:53.743Z,101016.02
2017-10-27T10:11:21.436Z,101014.81
2017-10-27T10:13:48.931Z,101014.25
2017-10-27T10:16:16.418Z,101015.83
2017-10-27T10:18:44.003Z,101030.08
2017-10-27T10:21:11.492Z,101029.33
2017-10-27T10:23:38.984Z,101027.97
2017-10-27T10:26:06.519Z,101039.91
2017-10-27T10:28:34.057Z,101034.81
2017-10-27T10:31:01.547Z,101036.12
2017-10-27T10:33:29.190Z,101045.47
2017-10-27T10:35:56.716Z,101031.58
2017-10-27T10:38:24.203Z,101076.94
2017-10-27T10:40:51.722Z,101069.45
2017-10-27T10:43:19.215Z,101081.01
2017-10-27T10:45:46.760Z,101087.31
2017-10-27T10:48:14.307Z,101080.78
2017-10-27T10:50:41.865Z,101088.92
2017-10-27T10:53:09.531Z,101088.15
2017-10-27T10:55:37.016Z,101089.03
2017-10-27T10:58:04.503Z,101095.02
2017-10-27T11:00:32.149Z,101090.52
2017-10-27T11:02:59.664Z,101082.55
2017-10-27T11:05:27.149Z,101090.05
2017-10-27T11:07:54.676Z,101090.84
2017-10-27T11:10:22.173Z,101095.59
2017-10-27T11:12:49.667Z,101095.42
2017-10-27T11:15:17.218Z,101095.97
2017-10-27T11:17:44.769Z,101090.30
2017-10-27T11:20:12.279Z,101089.64
2017-10-27T11:22:39.810Z,101096.19
2017-10-27T11:25:07.302Z,101115.59
2017-10-27T11:27:34.788Z,101107.94
2017-10-27T11:30:02.312Z,101116.94
2017-10-27T11:32:29.806Z,101128.56
2017-10-27T11:34:57.292Z,101128.68
2017-10-27T11:37:24.820Z,101133.19
2017-10-27T11:39:52.311Z,101135.05
2017-10-27T11:42:19.804Z,101135.27
2017-10-27T11:44:47.340Z,101137.23
2017-10-27T11:47:14.838Z,101130.53
2017-10-27T11:49:42.367Z,101134.89
2017-10-27T11:52:09.912Z,101145.93
2017-10-27T11:54:37.400Z,101151.91
2017-10-27T11:57:04.883Z,101145.30
2017-10-27T11:59:32.503Z,101166.39
2017-10-27T12:02:00.082Z,101155.10
2017-10-27T12:04:27.596Z,101174.15
2017-10-27T12:06:55.087Z,101165.73
2017-10-27T12:09:22.640Z,101171.11
2017-10-27T12:11:50.176Z,101159.94
2017-10-27T12:14:17.662Z,101175.19
2017-10-27T12:16:45.154Z,101166.65
2017-10-27T12:19:12.690Z,101169.66
2017-10-27T12:21:40.242Z,101177.69
2017-10-27T12:24:07.792Z,101183.59
2017-10-27T12:26:35.307Z,101187.72
2017-10-27T12:29:02.795Z,101198.38
2017-10-27T12:31:30.367Z,101204.72
2017-10-27T12:33:57.852Z,101195.47
2017-10-27T12:36:25.356Z,101212.45
2017-10-27T12:38:52.883Z,101214.59
2017-10-27T12:41:20.417Z,101216.84
2017-10-27T12:43:47.907Z,101221.66
2017-10-27T12:46:15.423Z,101234.00
2017-10-27T12:48:42.922Z,101242.83
2017-10-27T12:51:10.410Z,101245.81
2017-10-27T12:53:37.931Z,101249.09
2017-10-27T12:56:05.416Z,101252.88
2017-10-27T12:58:32.958Z,101259.38
2017-10-27T13:01:00.443Z,101270.92
2017-10-27T13:03:28.031Z,101266.22
2017-10-27T13:05:55.689Z,101272.06
2017-10-27T13:08:23.176Z,101283.77
2017-10-27T13:10:50.667Z,101287.08
2017-10-27T13:13:18.204Z,101275.31
2017-10-27T13:15:45.719Z,101284.45
2017-10-27T13:18:13.202Z,101286.78
2017-10-27T13:20:40.738Z,101301.40
2017-10-27T13:23:08.313Z,101301.93
2017-10-27T13:25:35.799Z,101315.28
2017-10-27T13:28:03.421Z,101306.55
2017-10-27T13:30:30.920Z,101331.70
2017-10-27T13:32:58.412Z,101326.22
2017-10-27T13:35:25.989Z,101328.77
2017-10-27T13:37:53.488Z,101326.77
2017-10-27T13:40:20.982Z,101338.59
2017-10-27T13:42:48.631Z,101349.86
2017-10-27T13:45:16.129Z,101346.94
2017-10-27T13:47:43.621Z,101356.66
2017-10-27T13:50:11.145Z,101366.66
2017-10-27T13:52:38.631Z,101364.16
2017-10-27T13:55:06.127Z,101370.80
2017-10-27T13:57:33.661Z,101368.09
2017-10-27T14:00:01.168Z,101382.05
2017-10-27T14:02:28.655Z,101379.70
2017-10-27T14:04:56.187Z,101386.88
2017-10-27T14:07:23.667Z,101381.46
2017-10-27T14:09:51.190Z,101391.08
2017-10-27T14:12:18.676Z,101391.91
2017-10-27T14:14:46.164Z,101395.36
2017-10-27T14:17:13.886Z,101403.37
2017-10-27T14:19:41.385Z,101401.71
2017-10-27T14:22:08.884Z,101402.35
2017-10-27T14:24:36.424Z,101403.50
2017-10-27T14:27:03.913Z,101410.89
2017-10-27T14:29:31.400Z,101414.34
2017-10-27T14:31:58.909Z,101408.92
2017-10-27T14:34:26.437Z,101421.41
2017-10-27T14:36:53.920Z,101428.20
2017-10-27T14:39:21.408Z,101429.77
2017-10-27T14:41:48.946Z,101436.33
2017-10-27T14:44:16.432Z,101441.43
2017-10-27T14:46:43.922Z,101449.16
2017-10-27T14:49:11.453Z,101436.55
2017-10-27T14:51:38.952Z,101441.12
2017-10-27T14:54:06.480Z,101444.14
2017-10-27T14:56:34.020Z,101441.74
2017-10-27T14:59:01.574Z,101445.92
2017-10-27T15:01:29.066Z,101440.07
2017-10-27T15:03:56.596Z,101448.42
2017-10-27T15:06:24.164Z,101458.42
2017-10-27T15:08:51.647Z,101450.17
2017-10-27T15:11:19.193Z,101455.48
2017-10-27T15:13:46.720Z,101460.80
2017-10-27T15:16:14.201Z,101461.30
2017-10-27T15:18:41.840Z,101464.84
2017-10-27T15:21:09.338Z,101463.69
2017-10-27T15:23:36.828Z,101471.19
2017-10-27T15:26:04.443Z,101468.07
2017-10-27T15:28:32.071Z,101477.93
2017-10-27T15:30:59.660Z,101484.81
2017-10-27T15:33:27.147Z,101493.35
2017-10-27T15:35:54.667Z,101496.36
2017-10-27T15:38:22.145Z,101511.33
2017-10-27T15:40:49.633Z,101516.64
2017-10-27T15:43:17.153Z,101521.00
2017-10-27T15:45:44.635Z,101529.84
2017-10-27T15:48:12.240Z,101528.14
2017-10-27T15:50:39.735Z,101541.08
2017-10-27T15:53:07.212Z,101536.91
2017-10-27T15:55:34.806Z,101545.21
2017-10-27T15:58:02.289Z,101547.39
2017-10-27T16:00:29.779Z,101552.50
2017-10-27T16:02:57.495Z,101550.40
2017-10-27T16:05:24.977Z,101550.55
2017-10-27T16:07:52.515Z,101561.79
2017-10-27T16:10:20.045Z,101570.44
2017-10-27T16:12:47.538Z,101575.44
2017-10-27T16:15:15.025Z,101578.78
2017-10-27T16:17:42.654Z,101591.63
2017-10-27T16:20:10.148Z,101589.94
2017-10-27T16:22:37.656Z,101582.64
2017-10-27T16:25:05.219Z,101585.87
2017-10-27T16:27:32.695Z,101581.52
2017-10-27T16:30:00.182Z,101581.09
2017-10-27T16:32:27.716Z,101584.11
2017-10-27T16:34:55.202Z,101584.33
2017-10-27T16:37:22.679Z,101592.75
2017-10-27T16:39:50.277Z,101602.04
2017-10-27T16:42:17.835Z,101601.70
2017-10-27T16:44:45.353Z,101598.69
2017-10-27T16:47:12.836Z,101610.64
2017-10-27T16:49:40.316Z,101606.80
2017-10-27T16:52:07.843Z,101592.30
2017-10-27T16:54:35.424Z,101594.33
2017-10-27T16:57:02.906Z,101602.94
2017-10-27T16:59:30.445Z,101616.28
2017-10-27T17:01:57.931Z,101622.41
2017-10-27T17:04:25.417Z,101618.98
2017-10-27T17:06:52.952Z,101621.62
2017-10-27T17:09:20.449Z,101621.22
2017-10-27T17:11:47.935Z,101617.38
2017-10-27T17:14:15.448Z,101627.51
2017-10-27T17:16:42.928Z,101630.55
2017-10-27T17:19:10.404Z,101639.61
2017-10-27T17:21:38.071Z,101651.87
2017-10-27T17:24:05.556Z,101659.16
2017-10-27T17:26:33.079Z,101658.38
2017-10-27T17:29:00.645Z,101656.33
2017-10-27T17:31:28.126Z,101662.30
2017-10-27T17:33:55.612Z,101665.24
2017-10-27T17:36:23.124Z,101670.17
2017-10-27T17:38:50.640Z,101664.12
2017-10-27T17:41:18.129Z,101673.18
2017-10-27T17:43:45.621Z,101663.59
2017-10-27T17:46:13.132Z,101664.41
2017-10-27T17:48:40.612Z,101666.11
2017-10-27T17:51:08.109Z,101674.12
2017-10-27T17:53:35.739Z,101675.29
2017-10-27T17:56:03.223Z,101659.67
2017-10-27T17:58:30.751Z,101674.45
2017-10-27T18:00:58.236Z,101663.40
2017-10-27T18:03:25.727Z,101667.66
2017-10-27T18:05:53.311Z,101673.93
2017-10-27T18:08:20.874Z,101670.28
2017-10-27T18:10:48.359Z,101675.78
2017-10-27T18:13:16.096Z,101671.19
2017-10-27T18:15:43.572Z,101665.35
2017-10-27T18:18:11.064Z,101670.55
2017-10-27T18:20:38.606Z,101674.91
2017-10-27T18:23:06.088Z,101680.55
2017-10-27T18:25:33.568Z,101677.02
2017-10-27T18:28:01.091Z,101687.77
2017-10-27T18:30:28.580Z,101680.25
2017-10-27T18:32:56.074Z,101678.14
2017-10-27T18:35:23.715Z,101669.15
2017-10-27T18:37:51.296Z,101676.09
2017-10-27T18:40:18.773Z,101666.28
2017-10-27T18:42:46.295Z,101671.69
2017-10-27T18:45:13.851Z,101677.59
2017-10-27T18:47:41.329Z,101676.64
2017-10-27T18:50:08.888Z,101680.16
2017-10-27T18:52:36.374Z,101680.05
2017-10-27T18:55:03.855Z,101677.95
2017-10-27T18:57:31.379Z,101685.34
2017-10-27T18:59:58.856Z,101692.30
2017-10-27T19:02:26.329Z,101694.11
2017-10-27T19:04:53.829Z,101689.75
2017-10-27T19:07:21.357Z,101690.48
2017-10-27T19:09:48.840Z,101687.17
2017-10-27T19:12:16.323Z,101690.41
2017-10-27T19:14:43.849Z,101694.46
2017-10-27T19:17:11.332Z,101690.30
2017-10-27T19:19:38.826Z,101695.88
2017-10-27T19:22:06.390Z,101693.48
2017-10-27T19:24:33.984Z,101696.75
2017-10-27T19:27:01.471Z,101700.70
2017-10-27T19:29:28.971Z,101702.58
2017-10-27T19:31:56.552Z,101694.77
2017-10-27T19:34:24.028Z,101696.88
2017-10-27T19:36:51.503Z,101691.28
2017-10-27T19:39:19.010Z,101686.58
2017-10-27T19:41:46.488Z,101685.64
2017-10-27T19:44:14.048Z,101691.06
2017-10-27T19:46:41.550Z,101688.17
2017-10-27T19:49:09.035Z,101689.64
2017-10-27T19:51:36.540Z,101689.62
2017-10-27T19:54:04.083Z,101689.05
2017-10-27T19:56:31.567Z,101680.35
2017-10-27T19:58:59.062Z,101681.36
2017-10-27T20:01:26.775Z,101675.70
2017-10-27T20:03:54.264Z,101665.28
2017-10-27T20:06:21.757Z,101663.66
2017-10-27T20:08:49.460Z,101668.95
2017-10-27T20:11:17.009Z,101665.00
2017-10-27T20:13:44.505Z,101672.34
2017-10-27T20:16:12.053Z,101671.51
2017-10-27T20:18:39.540Z,101669.58
2017-10-27T20:21:07.123Z,101662.83
2017-10-27T20:23:34.636Z,101660.41
2017-10-27T20:26:02.254Z,101666.88
2017-10-27T20:28:29.755Z,101657.86
2017-10-27T20:30:57.244Z,101654.83
2017-10-27T20:33:24.766Z,101649.00
2017-10-27T20:35:52.256Z,101651.12
2017-10-27T20:38:19.844Z,101659.98
2017-10-27T20:40:47.375Z,101662.58
2017-10-27T20:43:14.869Z,101649.00
2017-10-27T20:45:42.360Z,101652.62
2017-10-27T20:48:10.079Z,101645.33
2017-10-27T20:50:37.639Z,101642.00
2017-10-27T20:53:05.122Z,101634.41
2017-10-27T20:55:32.752Z,101632.75
2017-10-27T20:58:00.262Z,101639.51
2017-10-27T21:00:27.768Z,101642.63
2017-10-27T21:02:55.303Z,101642.69
2017-10-27T21:05:22.783Z,101655.03
2017-10-27T21:07:50.343Z,101655.50
2017-10-27T21:10:17.876Z,101661.50
2017-10-27T21:12:46.193Z,101658.91
2017-10-27T21:15:13.748Z,101653.45
2017-10-27T21:17:41.268Z,101654.16
2017-10-27T21:20:08.752Z,101644.39
2017-10-27T21:22:36.241Z,101647.81
2017-10-27T21:25:03.752Z,101651.64
2017-10-27T21:27:31.311Z,101647.70
2017-10-27T21:29:58.891Z,101648.52
2017-10-27T21:32:26.428Z,101644.52
2017-10-27T21:34:53.912Z,101644.65
2017-10-27T21:37:21.390Z,101643.22
2017-10-27T21:39:48.938Z,101648.62
2017-10-27T21:42:16.422Z,101650.93
2017-10-27T21:44:43.916Z,101649.16
2017-10-27T21:47:11.602Z,101648.00
2017-10-27T21:49:39.076Z,101638.88
2017-10-27T21:52:06.574Z,101643.57
2017-10-27T21:54:34.203Z,101638.47
2017-10-27T21:57:01.702Z,101639.09
2017-10-27T21:59:29.184Z,101624.52
2017-10-27T22:01:56.732Z,101621.59
2017-10-27T22:04:24.213Z,101615.45
2017-10-27T22:06:51.685Z,101618.98
2017-10-27T22:09:19.194Z,101620.45
2017-10-27T22:11:46.688Z,101615.53
2017-10-27T22:14:14.339Z,101609.41
2017-10-27T22:16:41.811Z,101604.59
2017-10-27T22:19:09.303Z,101604.70
2017-10-27T22:21:37.041Z,101603.77
2017-10-27T22:24:04.608Z,101597.41
2017-10-27T22:26:32.089Z,101597.11
2017-10-27T22:28:59.812Z,101591.09
2017-10-27T22:31:27.292Z,101595.69
2017-10-27T22:33:54.780Z,101590.80
2017-10-27T22:36:22.483Z,101587.16
2017-10-27T22:38:49.978Z,101593.96
2017-10-27T22:41:17.459Z,101593.96
2017-10-27T22:43:45.001Z,101597.61
2017-10-27T22:46:12.484Z,101593.96
2017-10-27T22:48:39.964Z,101590.73
2017-10-27T22:51:07.494Z,101584.80
2017-10-27T22:53:34.977Z,101575.02
2017-10-27T22:56:02.460Z,101565.55
2017-10-27T22:58:29.988Z,101566.71
2017-10-27T23:00:57.564Z,101564.19
2017-10-27T23:03:25.043Z,101549.49
2017-10-27T23:05:53.347Z,101546.91
2017-10-27T23:08:20.834Z,101540.96
2017-10-27T23:10:48.519Z,101541.30
2017-10-27T23:13:16.000Z,101540.25
2017-10-27T23:15:43.536Z,101540.44
2017-10-27T23:18:11.046Z,101538.78
2017-10-27T23:20:38.712Z,101525.66
2017-10-27T23:23:06.188Z,101524.00
2017-10-27T23:25:33.676Z,101524.64
2017-10-27T23:28:01.229Z,101519.84
2017-10-27T23:30:28.713Z,101512.55
2017-10-27T23:32:56.219Z,101509.87
2017-10-27T23:35:23.712Z,101511.94
2017-10-27T23:37:51.190Z,101501.53
2017-10-27T23:40:18.704Z,101501.22
2017-10-27T23:42:46.192Z,101503.21
2017-10-27T23:45:13.728Z,101493.41
2017-10-27T23:47:41.253Z,101501.86
2017-10-27T23:50:08.742Z,101505.73
2017-10-27T23:52:36.228Z,101492.58
2017-10-27T23:55:03.880Z,101500.84
2017-10-27T23:57:31.364Z,101492.69
2017-10-27T23:59:58.857Z,101496.75
